Time;durP1;ratioP1;P1;durP2;ratioP2;P2;SDS_P1;SDS_P2;PMS_P1;PMS_P2;Temp;Humidity;BMP_temperature;BMP_pressure;BME280_temperature;BME280_humidity;BME280_pressure;Samples;Min_cycle;Max_cycle;Signal;HPM_P1;HPM_P2
2021/07/12 00:01:27;;;;;;;2.65;1.00;;;;;;;16.32;86.47;100551.25;4973030;28;20454;-81
2021/07/12 00:03:53;;;;;;;1.35;0.93;;;;;;;16.22;86.58;100541.72;4985454;28;21040;-81
2021/07/12 00:06:18;;;;;;;1.95;0.98;;;;;;;16.29;86.15;100548.97;4984294;28;20396;-81
2021/07/12 00:08:44;;;;;;;1.52;1.10;;;;;;;16.19;85.98;100539.41;4985135;28;20030;-81
2021/07/12 00:11:09;;;;;;;4.88;1.10;;;;;;;16.31;85.86;100555.84;4986247;28;20028;-82
2021/07/12 00:13:35;;;;;;;1.48;1.10;;;;;;;16.25;85.58;100544.00;4969401;28;20446;-81
2021/07/12 00:16:00;;;;;;;1.15;0.90;;;;;;;16.29;85.70;100555.22;4985302;28;20406;-81
2021/07/12 00:18:26;;;;;;;2.50;1.10;;;;;;;16.18;85.78;100545.91;4988580;28;20093;-82
2021/07/12 00:20:51;;;;;;;1.35;0.90;;;;;;;16.22;85.53;100558.00;4979371;28;21556;-82
2021/07/12 00:23:17;;;;;;;0.95;0.80;;;;;;;16.25;85.91;100573.84;4995658;28;20464;-81
2021/07/12 00:25:42;;;;;;;3.95;1.20;;;;;;;16.21;85.84;100569.88;4997961;28;20022;-82
2021/07/12 00:28:08;;;;;;;1.85;1.08;;;;;;;16.26;85.86;100567.34;5013237;28;20513;-81
2021/07/12 00:30:33;;;;;;;1.40;0.95;;;;;;;16.20;85.93;100560.09;4980094;28;20025;-81
2021/07/12 00:32:59;;;;;;;4.15;1.20;;;;;;;16.07;86.12;100543.88;4996405;28;20049;-81
2021/07/12 00:35:25;;;;;;;2.30;1.27;;;;;;;16.24;86.33;100568.59;4986695;28;20030;-81
2021/07/12 00:37:52;;;;;;;1.88;1.20;;;;;;;16.28;85.80;100569.84;4980351;28;20034;-81
2021/07/12 00:40:19;;;;;;;2.45;1.10;;;;;;;16.28;86.34;100567.13;4977574;28;20025;-81
2021/07/12 00:42:46;;;;;;;2.30;1.20;;;;;;;16.23;86.32;100567.78;4992826;28;20072;-81
2021/07/12 00:45:20;;;;;;;2.15;1.10;;;;;;;16.25;86.27;100571.13;5014346;28;20030;-81
2021/07/12 00:47:47;;;;;;;2.17;1.30;;;;;;;16.18;86.71;100564.06;5020735;28;20023;-81
2021/07/12 00:50:13;;;;;;;1.45;1.25;;;;;;;16.09;86.77;100568.91;4994547;28;20187;-81
2021/07/12 00:52:39;;;;;;;1.48;1.08;;;;;;;16.04;87.01;100568.75;5010621;28;20548;-81
2021/07/12 00:55:31;;;;;;;1.98;1.02;;;;;;;15.98;87.23;100575.00;4980348;28;20053;-81
2021/07/12 00:57:57;;;;;;;1.25;1.15;;;;;;;15.87;87.57;100571.09;5007507;28;20077;-82
2021/07/12 01:00:24;;;;;;;2.55;1.10;;;;;;;15.81;87.96;100563.81;4981525;28;20181;-81
2021/07/12 01:02:51;;;;;;;1.45;1.08;;;;;;;15.76;88.04;100553.63;4994102;28;20022;-80
2021/07/12 01:05:18;;;;;;;2.78;1.20;;;;;;;15.85;87.83;100561.50;4993502;28;20029;-81
2021/07/12 01:07:44;;;;;;;2.35;1.20;;;;;;;15.84;88.07;100566.09;5006713;28;20042;-81
2021/07/12 01:10:11;;;;;;;4.07;1.40;;;;;;;15.82;88.15;100573.63;4990574;28;20026;-81
2021/07/12 01:12:39;;;;;;;1.30;1.20;;;;;;;15.79;88.37;100574.03;4996019;28;20053;-81
2021/07/12 01:15:33;;;;;;;1.90;1.40;;;;;;;15.76;88.79;100572.59;4994058;28;20461;-80
2021/07/12 01:18:11;;;;;;;2.45;1.20;;;;;;;15.79;88.52;100577.59;4993061;28;20029;-80
2021/07/12 01:21:07;;;;;;;2.20;1.33;;;;;;;15.76;88.74;100575.31;4996360;28;20026;-82
2021/07/12 01:24:02;;;;;;;1.83;1.50;;;;;;;15.79;88.74;100574.88;4992822;28;20034;-81
2021/07/12 01:26:40;;;;;;;2.55;1.65;;;;;;;15.79;88.38;100583.00;4996305;28;20506;-81
2021/07/12 01:29:43;;;;;;;1.80;1.55;;;;;;;15.85;88.25;100577.78;5012321;28;20088;-81
2021/07/12 01:32:33;;;;;;;2.70;1.48;;;;;;;15.85;87.99;100591.34;4994108;28;20041;-82
2021/07/12 01:35:37;;;;;;;3.75;1.48;;;;;;;15.83;87.82;100580.72;4991637;28;20121;-81
2021/07/12 01:38:10;;;;;;;1.50;1.20;;;;;;;15.85;87.66;100572.34;4992331;28;20049;-82
2021/07/12 01:40:46;;;;;;;;;;;;;;;15.90;87.35;100581.50;4996660;28;20072;-81
2021/07/12 01:43:34;;;;;;;1.50;1.17;;;;;;;15.91;87.26;100582.34;5011810;28;20485;-81
2021/07/12 01:46:07;;;;;;;2.88;1.50;;;;;;;15.91;87.35;100576.94;4992536;28;20064;-81
2021/07/12 01:48:49;;;;;;;3.22;1.17;;;;;;;15.89;87.09;100584.44;4994128;28;20060;-81
2021/07/12 01:51:15;;;;;;;1.80;1.30;;;;;;;15.79;87.01;100569.44;4998161;28;20049;-81
2021/07/12 01:54:01;;;;;;;2.70;1.10;;;;;;;15.84;87.02;100579.66;5003720;28;20026;-81
2021/07/12 01:56:33;;;;;;;2.95;1.50;;;;;;;15.79;86.80;100577.59;4974279;28;20034;-81
2021/07/12 01:59:22;;;;;;;1.88;1.10;;;;;;;15.82;86.53;100573.63;4993332;28;20030;-82
2021/07/12 02:01:48;;;;;;;2.17;1.20;;;;;;;15.83;86.80;100580.72;5005553;28;20509;-81
2021/07/12 02:04:15;;;;;;;1.23;1.10;;;;;;;15.78;86.30;100581.34;5004996;28;20026;-81
2021/07/12 02:06:41;;;;;;;2.85;1.10;;;;;;;15.77;86.60;100579.69;4989622;28;20117;-80
2021/07/12 02:09:09;;;;;;;3.47;1.30;;;;;;;15.74;86.87;100588.22;4988278;28;20030;-80
2021/07/12 02:11:36;;;;;;;1.85;1.38;;;;;;;15.73;86.88;100588.47;4990297;28;20022;-81
2021/07/12 02:14:02;;;;;;;1.67;1.27;;;;;;;15.71;87.13;100585.97;4973078;28;20026;-80
2021/07/12 02:16:28;;;;;;;2.03;1.38;;;;;;;15.77;87.01;100595.97;4970843;28;20458;-82
2021/07/12 02:18:55;;;;;;;3.97;1.42;;;;;;;15.76;87.04;100593.44;4986744;28;20026;-81
2021/07/12 02:21:21;;;;;;;2.85;1.30;;;;;;;15.75;86.83;100583.66;4986071;28;20113;-80
2021/07/12 02:23:47;;;;;;;1.60;1.27;;;;;;;15.77;86.99;100587.84;4982214;28;20026;-80
2021/07/12 02:26:14;;;;;;;1.65;0.95;;;;;;;15.85;86.84;100591.34;4987480;28;20033;-81
2021/07/12 02:28:44;;;;;;;2.90;1.20;;;;;;;15.93;86.52;100601.94;4987396;28;20049;-81
2021/07/12 02:31:12;;;;;;;2.58;1.38;;;;;;;15.79;86.59;100596.56;4981968;28;20458;-81
2021/07/12 02:33:39;;;;;;;1.30;1.10;;;;;;;15.81;86.28;100610.75;5002888;28;20508;-81
2021/07/12 02:36:04;;;;;;;2.67;1.13;;;;;;;15.75;86.60;100606.19;4971572;28;20026;-81
2021/07/12 02:38:30;;;;;;;1.52;0.98;;;;;;;15.72;86.91;100613.91;4966344;28;20505;-81
2021/07/12 02:40:56;;;;;;;1.63;1.00;;;;;;;15.58;87.24;100588.69;4972142;28;20033;-81
2021/07/12 02:43:22;;;;;;;1.65;1.00;;;;;;;15.70;86.96;100614.13;4966072;28;20026;-81
2021/07/12 02:45:49;;;;;;;2.60;1.00;;;;;;;15.69;86.93;100615.19;4968859;28;20030;-81
2021/07/12 02:48:14;;;;;;;1.65;0.98;;;;;;;15.63;87.10;100607.84;4983082;28;20072;-81
2021/07/12 02:50:40;;;;;;;1.10;1.00;;;;;;;15.63;87.10;100610.56;4979798;28;20100;-81
2021/07/12 02:53:22;;;;;;;1.40;1.08;;;;;;;15.69;86.84;100615.19;4979468;28;20033;-81
2021/07/12 02:55:47;;;;;;;120.10;112.82;;;;;;;15.72;87.02;100609.31;4980565;28;20093;-81
2021/07/12 02:58:13;;;;;;;122.03;110.55;;;;;;;15.69;86.93;100604.34;4986847;28;20030;-81
2021/07/12 03:00:38;;;;;;;6.70;3.97;;;;;;;15.65;86.66;100599.50;4990119;28;20038;-81
2021/07/12 03:03:04;;;;;;;1.63;1.10;;;;;;;15.65;86.98;100594.09;4989817;28;20034;-81
2021/07/12 03:05:29;;;;;;;653.47;186.40;;;;;;;15.66;86.78;100602.00;4990932;28;20413;-81
2021/07/12 03:08:10;;;;;;;1999.90;999.90;;;;;;;15.60;86.67;100606.38;5002770;28;21133;-81
2021/07/12 03:10:45;;;;;;;1999.90;999.90;;;;;;;15.56;86.77;100602.47;5003498;28;20041;-79
2021/07/12 03:13:15;;;;;;;1999.90;999.90;;;;;;;15.51;86.76;100604.16;4988399;28;20037;-82
2021/07/12 03:15:47;;;;;;;192.05;103.28;;;;;;;15.61;86.47;100618.06;4980414;28;20544;-81
2021/07/12 03:18:28;;;;;;;2.05;0.77;;;;;;;15.62;86.55;100617.03;4987683;28;20034;-80
2021/07/12 03:20:56;;;;;;;3.25;1.00;;;;;;;15.61;86.54;100621.63;4973788;28;20030;-81
2021/07/12 03:23:22;;;;;;;1.27;0.90;;;;;;;15.52;86.80;100614.75;4997965;28;20025;-81
2021/07/12 03:25:51;;;;;;;1.70;1.05;;;;;;;15.57;86.89;100631.22;4996292;28;20525;-82
2021/07/12 03:28:17;;;;;;;2.13;1.00;;;;;;;15.52;87.12;100619.34;4991345;28;20037;-82
2021/07/12 03:30:43;;;;;;;1.38;1.00;;;;;;;15.53;87.15;100629.13;4981718;28;20478;-82
2021/07/12 03:33:09;;;;;;;1.02;0.90;;;;;;;15.50;87.59;100632.25;4999635;28;20029;-82
2021/07/12 03:35:37;;;;;;;2.47;1.02;;;;;;;15.43;87.99;100626.00;4987560;28;20525;-80
2021/07/12 03:38:03;;;;;;;2.22;1.00;;;;;;;15.44;87.90;100642.06;4994654;28;20030;-81
2021/07/12 03:40:29;;;;;;;3.30;1.00;;;;;;;15.45;88.03;100640.19;4996688;28;20027;-82
2021/07/12 03:42:54;;;;;;;1.02;0.90;;;;;;;15.50;88.15;100645.81;4999713;28;20074;-81
2021/07/12 03:45:20;;;;;;;1.70;0.90;;;;;;;15.49;88.13;100639.56;4979528;28;20478;-82
2021/07/12 03:47:47;;;;;;;1.98;1.20;;;;;;;15.45;88.29;100635.59;4985512;28;20026;-79
2021/07/12 03:50:14;;;;;;;1.42;1.13;;;;;;;15.52;88.33;100649.16;4989734;28;20027;-80
2021/07/12 03:52:45;;;;;;;5.90;1.92;;;;;;;15.51;88.59;100647.50;4993544;28;20075;-80
2021/07/12 03:55:13;;;;;;;1.92;1.00;;;;;;;15.38;88.79;100640.22;4978878;28;20038;-82
2021/07/12 03:57:39;;;;;;;1.55;1.02;;;;;;;15.44;88.84;100657.50;4988404;28;20084;-81
2021/07/12 04:00:06;;;;;;;2.85;1.20;;;;;;;15.39;89.35;100655.41;4981264;28;20030;-81
2021/07/12 04:02:32;;;;;;;2.05;1.00;;;;;;;15.42;89.23;100659.59;4993967;28;20093;-80
2021/07/12 04:04:57;;;;;;;1.42;1.10;;;;;;;15.33;89.46;100654.38;4993540;28;20509;-81
2021/07/12 04:07:23;;;;;;;2.78;1.20;;;;;;;15.32;89.52;100655.44;4973039;28;20086;-81
2021/07/12 04:09:48;;;;;;;1.60;1.17;;;;;;;15.26;89.67;100648.13;5008347;28;20022;-81
2021/07/12 04:12:22;;;;;;;2.15;1.15;;;;;;;15.29;89.35;100655.84;4993301;28;20041;-81
2021/07/12 04:14:48;;;;;;;1.75;1.08;;;;;;;15.35;89.07;100656.91;4992014;28;20165;-81
2021/07/12 04:17:13;;;;;;;1.48;1.10;;;;;;;15.22;89.25;100652.31;4989921;28;20109;-81
2021/07/12 04:19:38;;;;;;;1.48;1.10;;;;;;;15.19;89.76;100652.75;4993373;28;20097;-82
2021/07/12 04:22:04;;;;;;;5.10;1.35;;;;;;;15.25;89.63;100668.16;4983610;28;20040;-80
2021/07/12 04:24:29;;;;;;;1.77;1.27;;;;;;;15.32;89.67;100677.13;4995304;28;20503;-80
2021/07/12 04:26:54;;;;;;;1.90;1.27;;;;;;;15.31;89.57;100674.59;4972408;28;20037;-81
2021/07/12 04:29:20;;;;;;;1.40;1.05;;;;;;;15.25;89.72;100672.75;5013037;28;20026;-80
2021/07/12 04:31:46;;;;;;;1.27;1.02;;;;;;;15.21;89.83;100671.47;4978552;28;20025;-79
2021/07/12 04:34:11;;;;;;;1.50;1.15;;;;;;;15.22;89.53;100676.69;4988520;28;20537;-81
2021/07/12 04:36:36;;;;;;;2.30;1.30;;;;;;;15.25;89.59;100676.28;4979745;28;20033;-82
2021/07/12 04:39:02;;;;;;;2.72;1.20;;;;;;;15.23;89.36;100670.22;4977150;28;20037;-80
2021/07/12 04:41:28;;;;;;;1.40;1.00;;;;;;;15.16;89.46;100663.97;4978357;28;20035;-82
2021/07/12 04:43:53;;;;;;;1.90;1.27;;;;;;;15.27;89.65;100685.03;4978792;28;20026;-81
2021/07/12 04:46:18;;;;;;;2.55;1.10;;;;;;;15.18;89.57;100676.25;4995816;28;20032;-80
2021/07/12 04:48:44;;;;;;;1.65;1.20;;;;;;;15.18;89.21;100670.00;4984123;28;20022;-81
2021/07/12 04:51:09;;;;;;;2.10;1.40;;;;;;;15.34;89.40;100690.44;4972823;28;20390;-82
2021/07/12 04:53:35;;;;;;;1.70;1.20;;;;;;;15.32;88.96;100695.22;4988416;28;20394;-80
2021/07/12 04:56:02;;;;;;;3.13;1.40;;;;;;;15.29;89.09;100699.19;4988094;28;20032;-81
2021/07/12 04:58:30;;;;;;;2.85;1.20;;;;;;;15.29;89.64;100703.75;4973918;28;20081;-82
2021/07/12 05:00:57;;;;;;;1.83;1.25;;;;;;;15.25;89.56;100708.78;4985881;28;20076;-80
2021/07/12 05:03:27;;;;;;;1.92;1.27;;;;;;;15.21;89.91;100706.69;4985336;28;20048;-81
2021/07/12 05:05:52;;;;;;;1.60;1.27;;;;;;;15.22;90.01;100721.91;5001495;28;20124;-80
2021/07/12 05:08:18;;;;;;;1.70;1.20;;;;;;;15.16;90.21;100715.41;4996458;28;20058;-82
2021/07/12 05:10:43;;;;;;;1.70;1.30;;;;;;;15.19;90.41;100720.44;4977738;28;20028;-80
2021/07/12 05:13:09;;;;;;;2.78;1.40;;;;;;;15.14;90.32;100707.53;4977769;28;20114;-82
2021/07/12 05:15:34;;;;;;;1.98;1.20;;;;;;;15.14;90.39;100717.53;4986240;28;20375;-80
2021/07/12 05:18:00;;;;;;;4.25;1.52;;;;;;;15.18;90.45;100729.59;4985614;28;20056;-80
2021/07/12 05:20:25;;;;;;;1.83;1.30;;;;;;;15.19;90.07;100734.00;4987570;28;20038;-81
2021/07/12 05:22:50;;;;;;;2.30;1.40;;;;;;;15.24;90.13;100742.34;5009993;28;20033;-82
2021/07/12 05:25:16;;;;;;;2.50;1.33;;;;;;;15.18;90.53;100729.59;4977561;28;20402;-80
2021/07/12 05:27:41;;;;;;;2.65;1.20;;;;;;;15.22;90.29;100739.00;4989489;28;20395;-80
2021/07/12 05:30:07;;;;;;;4.30;1.70;;;;;;;15.20;90.20;100730.22;4990274;28;20025;-83
2021/07/12 05:32:33;;;;;;;1.35;1.15;;;;;;;15.21;90.07;100734.59;4985862;28;20537;-82
2021/07/12 05:34:58;;;;;;;3.85;1.50;;;;;;;15.24;89.84;100728.78;4981399;28;20026;-81
2021/07/12 05:37:24;;;;;;;1.80;1.30;;;;;;;15.28;89.82;100730.03;4997004;28;20041;-81
2021/07/12 05:39:49;;;;;;;1.48;1.20;;;;;;;15.36;89.83;100737.94;4990767;28;20022;-80
2021/07/12 05:42:14;;;;;;;3.55;1.48;;;;;;;15.41;89.60;100744.63;4974359;28;20022;-82
2021/07/12 05:44:40;;;;;;;2.05;1.30;;;;;;;15.42;89.60;100741.69;4977936;28;20084;-80
2021/07/12 05:47:05;;;;;;;399.83;51.60;;;;;;;15.43;88.94;100739.81;4976075;28;20034;-79
2021/07/12 05:49:31;;;;;;;1999.90;999.90;;;;;;;15.53;88.55;100741.09;4994311;28;20076;-82
2021/07/12 05:51:56;;;;;;;1114.30;530.78;;;;;;;15.50;88.86;100746.91;4990881;28;20029;-82
2021/07/12 05:54:22;;;;;;;1999.90;999.90;;;;;;;15.48;88.67;100746.31;5004477;28;20018;-80
2021/07/12 05:56:47;;;;;;;1999.90;999.90;;;;;;;15.52;88.50;100746.72;4992484;28;20537;-82
2021/07/12 05:59:12;;;;;;;1041.75;537.53;;;;;;;15.49;88.65;100736.28;4992773;28;20598;-82
2021/07/12 06:01:38;;;;;;;1999.90;999.90;;;;;;;15.59;88.48;100742.13;5008003;28;20879;-81
2021/07/12 06:04:03;;;;;;;200.02;126.70;;;;;;;15.61;88.17;100734.59;4973594;28;20034;-79
2021/07/12 06:06:29;;;;;;;433.13;206.90;;;;;;;15.56;88.29;100747.97;5002799;28;20473;-79
2021/07/12 06:08:54;;;;;;;1999.90;999.90;;;;;;;15.51;88.82;100750.47;5004613;28;20034;-82
2021/07/12 06:11:19;;;;;;;1999.90;999.90;;;;;;;15.53;88.47;100748.38;4980854;28;20025;-81
2021/07/12 06:13:45;;;;;;;1999.90;999.90;;;;;;;15.48;88.58;100749.00;4988910;28;20022;-82
2021/07/12 06:16:10;;;;;;;1999.90;999.90;;;;;;;15.56;88.64;100756.09;4975377;28;20092;-82
2021/07/12 06:18:36;;;;;;;5.20;2.13;;;;;;;15.61;88.47;100750.88;4990609;28;20017;-80
2021/07/12 06:21:01;;;;;;;2.67;1.88;;;;;;;15.73;88.29;100754.66;4995716;28;20026;-81
2021/07/12 06:23:27;;;;;;;3.35;1.73;;;;;;;15.78;88.40;100757.56;4994784;28;20381;-81
2021/07/12 06:25:52;;;;;;;2.67;2.05;;;;;;;15.73;87.79;100748.41;4999258;28;20032;-81
2021/07/12 06:28:18;;;;;;;3.58;1.90;;;;;;;15.85;87.58;100762.13;4994478;28;20029;-81
2021/07/12 06:30:44;;;;;;;2.42;1.50;;;;;;;15.92;87.59;100754.84;5009057;28;20022;-81
2021/07/12 06:33:09;;;;;;;2.67;1.55;;;;;;;16.00;87.24;100754.63;4977500;28;20418;-81
2021/07/12 06:35:35;;;;;;;2.85;1.90;;;;;;;16.05;86.71;100768.38;4981057;28;20033;-81
2021/07/12 06:38:00;;;;;;;3.92;1.63;;;;;;;16.14;86.37;100764.41;4994932;28;20099;-81
2021/07/12 06:40:26;;;;;;;1.73;1.40;;;;;;;16.13;86.34;100762.72;4979690;28;20034;-81
2021/07/12 06:42:51;;;;;;;2.08;1.50;;;;;;;16.14;85.77;100771.69;4977350;28;20030;-82
2021/07/12 06:45:18;;;;;;;2.08;1.50;;;;;;;16.08;85.81;100776.09;4977282;28;20040;-81
2021/07/12 06:47:43;;;;;;;1.42;1.27;;;;;;;16.15;85.94;100786.94;4981003;28;20025;-81
2021/07/12 06:50:09;;;;;;;2.50;1.70;;;;;;;16.12;86.20;100788.19;4980249;28;20076;-82
2021/07/12 06:52:35;;;;;;;4.78;1.60;;;;;;;16.12;85.97;100792.78;4991405;28;20054;-80
2021/07/12 06:55:00;;;;;;;3.70;1.30;;;;;;;16.11;86.00;100788.38;4993086;28;20022;-79
2021/07/12 06:57:26;;;;;;;2.65;1.30;;;;;;;16.01;85.76;100780.72;4975393;28;20030;-80
2021/07/12 06:59:51;;;;;;;1.70;1.48;;;;;;;16.02;85.88;100796.75;5003212;28;20072;-80
2021/07/12 07:02:17;;;;;;;2.35;1.30;;;;;;;16.07;85.51;100793.41;4992746;28;20033;-81
2021/07/12 07:04:43;;;;;;;3.92;1.40;;;;;;;16.02;85.44;100790.50;4979132;28;20026;-80
2021/07/12 07:07:08;;;;;;;1.40;1.20;;;;;;;16.07;85.37;100792.59;4972899;28;20030;-78
2021/07/12 07:09:33;;;;;;;2.22;1.45;;;;;;;16.21;84.98;100796.94;4985437;28;20022;-82
2021/07/12 07:11:59;;;;;;;2.58;1.50;;;;;;;16.30;84.84;100806.53;5004586;28;20014;-81
2021/07/12 07:14:24;;;;;;;2.35;1.60;;;;;;;16.36;84.52;100802.94;4982178;28;20065;-81
2021/07/12 07:16:50;;;;;;;2.15;1.30;;;;;;;16.47;84.37;100815.84;5016034;28;20033;-81
2021/07/12 07:19:15;;;;;;;2.80;1.20;;;;;;;16.52;84.43;100811.69;5002541;28;20021;-81
2021/07/12 07:21:41;;;;;;;1.90;1.30;;;;;;;16.57;84.34;100815.41;5001958;28;20034;-81
2021/07/12 07:24:06;;;;;;;3.45;1.30;;;;;;;16.53;84.20;100797.88;4987472;28;20022;-81
2021/07/12 07:26:32;;;;;;;2.22;1.35;;;;;;;16.70;83.81;100809.94;4966697;28;20117;-81
2021/07/12 07:28:57;;;;;;;3.03;1.50;;;;;;;16.70;83.30;100820.81;4977784;28;20593;-80
2021/07/12 07:31:23;;;;;;;1.90;1.50;;;;;;;16.74;82.92;100813.03;4988894;28;21067;-80
2021/07/12 07:33:49;;;;;;;1.98;1.42;;;;;;;16.92;82.34;100815.09;4991746;28;20491;-80
2021/07/12 07:36:16;;;;;;;2.45;1.40;;;;;;;16.99;82.32;100817.75;4993901;28;20030;-80
2021/07/12 07:38:42;;;;;;;2.35;1.60;;;;;;;16.97;82.21;100826.16;4999228;28;20023;-79
2021/07/12 07:41:07;;;;;;;2.10;1.50;;;;;;;16.86;81.88;100824.13;4991531;28;20612;-79
2021/07/12 07:43:33;;;;;;;2.50;1.70;;;;;;;16.76;81.84;100831.84;4990775;28;20026;-80
2021/07/12 07:45:58;;;;;;;2.28;1.52;;;;;;;16.75;81.88;100828.31;4987134;28;20018;-79
2021/07/12 07:48:24;;;;;;;2.42;1.83;;;;;;;16.82;81.61;100831.00;5008803;28;20101;-79
2021/07/12 07:50:49;;;;;;;2.38;1.50;;;;;;;16.91;80.98;100838.72;5010434;28;20026;-79
2021/07/12 07:53:15;;;;;;;2.88;1.48;;;;;;;17.01;80.42;100832.78;4977361;28;20027;-79
2021/07/12 07:55:40;;;;;;;3.72;1.65;;;;;;;17.17;80.25;100836.06;5002908;28;20021;-79
2021/07/12 07:58:06;;;;;;;1.92;1.40;;;;;;;17.16;79.98;100826.25;5004375;28;20062;-80
2021/07/12 08:00:32;;;;;;;3.67;1.50;;;;;;;17.21;80.23;100837.31;4975428;28;20036;-77
2021/07/12 08:02:57;;;;;;;2.05;1.63;;;;;;;17.25;80.58;100838.53;4996202;28;20038;-77
2021/07/12 08:05:23;;;;;;;2.17;1.58;;;;;;;17.31;80.59;100838.50;4990315;28;20033;-80
2021/07/12 08:07:48;;;;;;;2.15;1.58;;;;;;;17.29;80.01;100831.63;4976054;28;20026;-80
2021/07/12 08:10:16;;;;;;;1.98;1.45;;;;;;;17.38;80.15;100849.31;5000844;28;20030;-81
2021/07/12 08:12:42;;;;;;;2.22;1.63;;;;;;;17.49;80.55;100864.94;5009409;28;20482;-82
2021/07/12 08:15:09;;;;;;;4.85;1.48;;;;;;;17.46;80.52;100859.94;5008595;28;20044;-81
2021/07/12 08:17:35;;;;;;;3.20;1.35;;;;;;;17.46;80.19;100872.69;4980355;28;20022;-80
2021/07/12 08:20:01;;;;;;;1.77;1.30;;;;;;;17.39;79.33;100867.31;4979577;28;20021;-80
2021/07/12 08:22:27;;;;;;;3.05;1.50;;;;;;;17.32;79.39;100872.78;4999186;28;20030;-81
2021/07/12 08:24:52;;;;;;;2.05;1.55;;;;;;;17.28;78.83;100866.13;4994860;28;20041;-80
2021/07/12 08:27:18;;;;;;;2.20;1.50;;;;;;;17.33;78.72;100874.47;4980388;28;20601;-80
2021/07/12 08:29:44;;;;;;;2.45;1.60;;;;;;;17.29;78.91;100869.66;4987327;28;20017;-81
2021/07/12 08:32:09;;;;;;;2.92;1.33;;;;;;;17.21;78.81;100868.03;4978581;28;20009;-81
2021/07/12 08:34:41;;;;;;;1.90;1.50;;;;;;;17.31;78.95;100873.84;4988594;28;20109;-80
2021/07/12 08:37:07;;;;;;;3.28;1.80;;;;;;;17.31;78.94;100870.28;5005585;28;20018;-80
2021/07/12 08:39:33;;;;;;;2.20;1.60;;;;;;;17.31;79.08;100870.28;4976449;28;20038;-80
2021/07/12 08:41:59;;;;;;;1.73;1.48;;;;;;;17.31;79.24;100875.72;4996732;28;20026;-81
2021/07/12 08:44:25;;;;;;;1.95;1.35;;;;;;;17.32;79.11;100877.38;4995760;28;20129;-80
2021/07/12 08:46:51;;;;;;;1.65;1.25;;;;;;;17.47;78.59;100885.25;4987959;28;20023;-81
2021/07/12 08:49:16;;;;;;;1.92;1.50;;;;;;;17.56;77.75;100881.22;4977387;28;20015;-80
2021/07/12 08:51:42;;;;;;;2.00;1.50;;;;;;;17.53;77.13;100874.31;4994491;28;20402;-81
2021/07/12 08:54:08;;;;;;;1.98;1.30;;;;;;;17.66;77.27;100888.91;4976459;28;20023;-81
2021/07/12 08:56:33;;;;;;;1.98;1.50;;;;;;;17.67;77.20;100879.66;4984277;28;20122;-81
2021/07/12 08:59:36;;;;;;;2.05;1.42;;;;;;;17.80;77.56;100890.47;4975708;28;20025;-81
2021/07/12 09:02:07;;;;;;;2.22;1.50;;;;;;;17.94;76.67;100893.94;5006306;28;20021;-80
2021/07/12 09:04:34;;;;;;;1.52;1.20;;;;;;;17.99;76.76;100894.97;4985563;28;20685;-80
2021/07/12 09:07:05;;;;;;;2.47;1.48;;;;;;;18.06;75.67;100894.88;4988636;28;20026;-81
2021/07/12 09:09:31;;;;;;;3.22;1.60;;;;;;;18.08;75.12;100900.13;4988792;28;20509;-81
2021/07/12 09:12:08;;;;;;;2.08;1.58;;;;;;;18.19;75.03;100902.13;4995324;28;20015;-81
2021/07/12 09:14:39;;;;;;;2.78;1.60;;;;;;;18.46;74.31;100910.88;4990044;28;20067;-80
2021/07/12 09:17:04;;;;;;;2.40;1.60;;;;;;;18.83;73.40;100883.69;4996048;28;20490;-80
2021/07/12 09:19:32;;;;;;;1.77;1.40;;;;;;;18.93;72.42;100889.44;4976415;28;20022;-82
2021/07/12 09:22:07;;;;;;;2.13;1.13;;;;;;;18.92;71.39;100908.72;4998541;28;20021;-81
2021/07/12 09:24:32;;;;;;;3.08;1.60;;;;;;;18.89;71.83;100899.13;5007635;28;20030;-81
2021/07/12 09:27:10;;;;;;;1.80;1.33;;;;;;;19.30;70.84;100900.31;4994268;28;20037;-81
2021/07/12 09:29:45;;;;;;;2.08;1.20;;;;;;;19.35;70.37;100903.19;5007240;28;20050;-81
2021/07/12 09:32:16;;;;;;;2.22;1.30;;;;;;;19.18;70.26;100902.97;5017271;28;20045;-81
2021/07/12 09:34:42;;;;;;;1.98;1.20;;;;;;;18.97;70.68;100912.44;4998255;28;20042;-81
2021/07/12 09:37:11;;;;;;;1.50;1.15;;;;;;;18.74;71.21;100907.66;4995015;28;20097;-80
2021/07/12 09:39:36;;;;;;;2.10;1.33;;;;;;;18.75;71.77;100908.50;4995208;28;20026;-81
2021/07/12 09:42:09;;;;;;;1.90;1.40;;;;;;;18.83;71.74;100911.75;4998846;28;20060;-81
2021/07/12 09:44:38;;;;;;;1.50;1.40;;;;;;;18.88;72.29;100898.28;4992563;28;20022;-81
2021/07/12 09:47:09;;;;;;;2.00;1.50;;;;;;;18.94;72.44;100893.00;4981534;28;20022;-81
2021/07/12 09:49:35;;;;;;;2.10;1.27;;;;;;;18.98;71.78;100888.78;4997481;28;20569;-81
2021/07/12 09:52:08;;;;;;;2.15;1.50;;;;;;;19.00;71.14;100882.03;5018516;28;20033;-82
2021/07/12 09:54:37;;;;;;;;;;;;;;;19.17;71.34;100895.84;4986009;28;20041;-81
2021/07/12 09:57:09;;;;;;;3.55;1.20;;;;;;;19.35;68.91;100895.00;4990933;28;19955;-82
2021/07/12 09:59:36;;;;;;;2.78;1.60;;;;;;;19.44;67.71;100895.50;5014106;28;20013;-82
2021/07/12 10:02:03;;;;;;;2.53;1.50;;;;;;;19.46;68.16;100880.56;5004249;28;20022;-81
2021/07/12 10:04:29;;;;;;;2.40;1.33;;;;;;;19.48;68.77;100881.19;4995767;28;20036;-81
2021/07/12 10:06:55;;;;;;;1.70;1.38;;;;;;;19.72;68.17;100884.84;4997020;28;20021;-81
2021/07/12 10:09:22;;;;;;;3.20;1.45;;;;;;;19.71;68.56;100868.69;5005432;28;20033;-81
2021/07/12 10:11:56;;;;;;;3.50;1.45;;;;;;;19.94;67.56;100903.38;5002609;28;20046;-81
2021/07/12 10:14:23;;;;;;;1.77;1.35;;;;;;;19.80;67.50;100901.94;5014270;28;20651;-81
2021/07/12 10:16:50;;;;;;;2.90;1.50;;;;;;;19.65;68.34;100908.63;4993081;28;20049;-82
2021/07/12 10:19:16;;;;;;;1.98;1.20;;;;;;;19.62;68.13;100903.63;4993157;28;20021;-81
2021/07/12 10:21:52;;;;;;;1.80;1.30;;;;;;;19.47;67.84;100911.41;4983734;28;20037;-82
2021/07/12 10:24:26;;;;;;;3.45;1.35;;;;;;;19.36;67.89;100901.28;5012315;28;20025;-80
2021/07/12 10:26:57;;;;;;;2.83;1.50;;;;;;;19.43;67.82;100908.31;4982815;28;20022;-83
2021/07/12 10:29:31;;;;;;;1.40;1.20;;;;;;;19.40;66.79;100899.75;4981355;28;20026;-82
2021/07/12 10:32:00;;;;;;;1.73;1.20;;;;;;;19.42;66.84;100894.88;4999994;28;20072;-81
2021/07/12 10:34:29;;;;;;;2.85;1.35;;;;;;;19.58;66.46;100907.88;5000514;28;20021;-81
2021/07/12 10:37:04;;;;;;;2.72;1.30;;;;;;;19.50;66.93;100887.25;4998742;28;20022;-82
2021/07/12 10:40:11;;;;;;;1.77;1.25;;;;;;;19.84;66.20;100919.50;4997052;28;20022;-81
2021/07/12 10:42:45;;;;;;;1.83;1.30;;;;;;;19.88;66.10;100915.25;5005061;28;20022;-82
2021/07/12 10:45:11;;;;;;;1.70;1.30;;;;;;;19.85;67.01;100918.44;5017185;28;20073;-82
2021/07/12 10:47:50;;;;;;;1.77;1.27;;;;;;;19.91;66.67;100906.59;5013063;28;20298;-81
2021/07/12 10:50:34;;;;;;;2.08;1.20;;;;;;;19.93;65.62;100912.66;4993534;28;20033;-82
2021/07/12 10:53:26;;;;;;;1.88;1.35;;;;;;;20.01;66.12;100920.50;5002355;28;20030;-82
2021/07/12 10:55:58;;;;;;;3.78;1.58;;;;;;;20.21;66.49;100918.25;4989264;28;20036;-82
2021/07/12 10:58:34;;;;;;;1.77;1.48;;;;;;;20.32;66.16;100926.69;5017040;28;20104;-81
2021/07/12 11:01:05;;;;;;;2.22;1.85;;;;;;;21.02;64.88;100929.41;5012480;28;20387;-82
2021/07/12 11:03:44;;;;;;;4.20;3.17;;;;;;;21.60;62.49;100918.56;4981700;28;20092;-82
2021/07/12 11:06:14;;;;;;;2.47;1.55;;;;;;;22.01;60.59;100925.56;5007549;28;20032;-82
2021/07/12 11:08:53;;;;;;;2.70;1.60;;;;;;;21.62;61.02;100924.59;4994085;28;20037;-81
2021/07/12 11:11:19;;;;;;;3.53;2.40;;;;;;;21.36;61.03;100935.03;4990350;28;20015;-82
2021/07/12 11:14:01;;;;;;;2.95;1.60;;;;;;;21.01;61.87;100935.13;4983793;28;20029;-81
2021/07/12 11:16:38;;;;;;;3.47;1.48;;;;;;;20.54;63.37;100933.28;4985335;28;20387;-82
2021/07/12 11:19:37;;;;;;;2.33;1.60;;;;;;;20.23;64.50;100939.88;4983653;28;20121;-82
2021/07/12 11:22:15;;;;;;;2.40;1.90;;;;;;;20.13;65.18;100929.53;4952375;28;20042;-82
2021/07/12 11:25:02;;;;;;;2.78;1.85;;;;;;;20.14;65.17;100936.66;4984781;28;20052;-81
2021/07/12 11:27:42;;;;;;;2.17;1.80;;;;;;;20.11;65.62;100933.56;4979246;28;20014;-81
2021/07/12 11:30:26;;;;;;;2.25;2.00;;;;;;;20.15;65.50;100932.84;4989511;28;20093;-81